createdAt,value
2018-08-22T05:39:14.446Z,6.47
2018-08-22T05:41:43.390Z,5.33
2018-08-22T05:44:12.518Z,6.22
2018-08-22T05:46:41.006Z,5.40
2018-08-22T05:49:09.547Z,6.70
2018-08-22T05:51:38.030Z,5.35
2018-08-22T05:54:07.569Z,5.58
2018-08-22T05:56:36.479Z,6.42
2018-08-22T05:59:10.192Z,6.45
2018-08-22T06:01:39.019Z,5.50
2018-08-22T06:04:07.608Z,6.72
2018-08-22T06:06:36.072Z,7.12
2018-08-22T06:09:08.459Z,7.65
2018-08-22T06:11:37.410Z,7.87
2018-08-22T06:14:06.207Z,8.90
2018-08-22T06:16:34.679Z,7.33
2018-08-22T06:19:03.149Z,9.28
2018-08-22T06:21:31.724Z,7.85
2018-08-22T06:24:00.219Z,7.60
2018-08-22T06:26:28.784Z,5.92
2018-08-22T06:28:57.276Z,9.00
2018-08-22T06:31:25.740Z,6.83
2018-08-22T06:33:54.444Z,9.40
2018-08-22T06:36:22.946Z,6.90
2018-08-22T06:38:51.499Z,7.85
2018-08-22T06:41:19.989Z,5.95
2018-08-22T06:43:48.567Z,5.03
2018-08-22T06:46:17.027Z,8.75
2018-08-22T06:48:45.493Z,5.92
2018-08-22T06:51:13.991Z,10.90
2018-08-22T06:53:42.540Z,4.97
2018-08-22T06:56:11.038Z,8.45
2018-08-22T06:58:39.502Z,6.67
2018-08-22T07:01:07.996Z,6.58
2018-08-22T07:03:36.648Z,6.17
2018-08-22T07:06:05.141Z,8.08
2018-08-22T07:08:33.636Z,4.70
2018-08-22T07:11:02.151Z,6.40
2018-08-22T07:13:30.634Z,19.52
2018-08-22T07:15:59.119Z,8.30
2018-08-22T07:18:27.658Z,5.87
2018-08-22T07:20:56.119Z,8.10
2018-08-22T07:23:24.670Z,8.38
2018-08-22T07:25:53.137Z,7.42
2018-08-22T07:28:21.609Z,5.97
2018-08-22T07:30:50.124Z,5.62
2018-08-22T07:33:18.679Z,10.30
2018-08-22T07:35:47.183Z,6.25
2018-08-22T07:38:15.600Z,7.58
2018-08-22T07:40:44.052Z,8.38
2018-08-22T07:43:12.628Z,6.25
2018-08-22T07:45:41.122Z,6.40
2018-08-22T07:48:09.600Z,5.50
2018-08-22T07:50:38.071Z,7.95
2018-08-22T07:53:06.633Z,6.72
2018-08-22T07:55:37.438Z,5.90
2018-08-22T07:58:06.137Z,4.72
2018-08-22T08:00:34.622Z,6.45
2018-08-22T08:03:03.240Z,5.20
2018-08-22T08:05:31.837Z,6.28
2018-08-22T08:08:00.309Z,7.75
2018-08-22T08:10:34.918Z,5.45
2018-08-22T08:13:04.308Z,6.95
2018-08-22T08:15:32.810Z,8.63
2018-08-22T08:18:01.293Z,5.97
2018-08-22T08:20:29.817Z,9.43
2018-08-22T08:22:58.401Z,5.60
2018-08-22T08:25:26.922Z,6.08
2018-08-22T08:27:55.413Z,7.17
2018-08-22T08:30:23.893Z,6.10
2018-08-22T08:32:52.461Z,6.12
2018-08-22T08:35:20.937Z,7.67
2018-08-22T08:37:49.449Z,3.62
2018-08-22T08:40:17.993Z,5.85
2018-08-22T08:42:46.593Z,6.97
2018-08-22T08:45:15.083Z,4.30
2018-08-22T08:47:43.570Z,7.25
2018-08-22T08:50:12.038Z,3.70
2018-08-22T08:52:40.568Z,4.72
2018-08-22T08:55:09.082Z,4.20
2018-08-22T08:57:37.551Z,3.65
2018-08-22T09:00:06.086Z,3.15
2018-08-22T09:02:34.591Z,5.03
2018-08-22T09:05:03.120Z,6.05
2018-08-22T09:07:31.616Z,7.50
2018-08-22T09:10:00.124Z,3.72
2018-08-22T09:12:28.601Z,4.37
2018-08-22T09:17:25.665Z,4.90
2018-08-22T09:19:54.099Z,5.20
2018-08-22T09:22:22.652Z,4.95
2018-08-22T09:24:51.131Z,4.42
2018-08-22T09:27:19.648Z,5.25
2018-08-22T09:29:48.206Z,5.42
2018-08-22T09:32:16.694Z,7.65
2018-08-22T09:34:45.328Z,6.00
2018-08-22T09:37:13.838Z,4.60
2018-08-22T09:39:42.380Z,7.67
2018-08-22T09:42:10.899Z,7.37
2018-08-22T09:44:39.413Z,5.75
2018-08-22T09:47:07.918Z,6.58
2018-08-22T09:49:36.393Z,4.37
2018-08-22T09:52:04.981Z,4.85
2018-08-22T09:54:40.986Z,5.40
2018-08-22T09:57:09.481Z,4.72
2018-08-22T09:59:38.001Z,6.22
2018-08-22T10:02:06.547Z,4.55
2018-08-22T10:04:35.195Z,5.10
2018-08-22T10:07:03.759Z,4.65
2018-08-22T10:09:32.197Z,5.17
2018-08-22T10:12:00.683Z,4.70
2018-08-22T10:14:29.297Z,5.55
2018-08-22T10:16:57.824Z,5.92
2018-08-22T10:19:26.298Z,4.60
2018-08-22T10:21:54.830Z,5.70
2018-08-22T10:24:23.426Z,8.78
2018-08-22T10:26:51.952Z,4.85
2018-08-22T10:29:20.476Z,5.15
2018-08-22T10:31:48.997Z,6.25
2018-08-22T10:34:17.866Z,5.33
2018-08-22T10:36:46.399Z,6.00
2018-08-22T10:39:14.922Z,5.20
2018-08-22T10:41:43.472Z,5.33
2018-08-22T10:44:12.115Z,5.65
2018-08-22T10:46:40.675Z,5.80
2018-08-22T10:49:09.176Z,6.25
2018-08-22T10:51:37.681Z,5.42
2018-08-22T10:54:06.536Z,4.80
2018-08-22T10:56:35.088Z,8.28
2018-08-22T10:59:03.593Z,5.40
2018-08-22T11:01:32.123Z,6.45
2018-08-22T11:04:00.730Z,5.62
2018-08-22T11:06:29.272Z,6.65
2018-08-22T11:08:57.782Z,6.67
2018-08-22T11:11:26.272Z,5.28
2018-08-22T11:13:54.888Z,5.03
2018-08-22T11:16:23.412Z,4.90
2018-08-22T11:18:51.948Z,4.87
2018-08-22T11:21:31.526Z,4.70
2018-08-22T11:24:11.383Z,6.53
2018-08-22T11:26:50.961Z,5.62
2018-08-22T11:29:30.715Z,6.92
2018-08-22T11:32:10.563Z,6.58
2018-08-22T11:34:47.093Z,5.55
2018-08-22T11:37:16.609Z,6.50
2018-08-22T11:39:46.515Z,6.85
2018-08-22T11:42:15.035Z,5.20
2018-08-22T11:44:43.536Z,5.30
2018-08-22T11:47:12.036Z,5.67
2018-08-22T11:49:40.598Z,5.50
2018-08-22T11:52:09.116Z,5.45
2018-08-22T11:54:37.723Z,7.25
2018-08-22T11:57:06.519Z,5.20
2018-08-22T11:59:35.197Z,5.03
2018-08-22T12:02:03.801Z,5.37
2018-08-22T12:04:32.465Z,5.37
2018-08-22T12:07:00.981Z,5.70
2018-08-22T12:09:29.501Z,5.45
2018-08-22T12:11:57.991Z,5.55
2018-08-22T12:14:26.608Z,5.33
2018-08-22T12:16:55.109Z,6.83
2018-08-22T12:19:23.678Z,5.30
2018-08-22T12:21:52.200Z,6.03
2018-08-22T12:24:20.806Z,5.55
2018-08-22T12:26:49.295Z,7.25
2018-08-22T12:29:17.882Z,5.55
2018-08-22T12:31:46.470Z,5.72
2018-08-22T12:34:15.078Z,5.92
2018-08-22T12:36:43.563Z,6.95
2018-08-22T12:39:12.094Z,6.08
2018-08-22T12:41:40.582Z,5.45
2018-08-22T12:44:09.142Z,5.50
2018-08-22T12:46:37.656Z,5.35
2018-08-22T12:49:06.185Z,5.45
2018-08-22T12:51:34.698Z,7.33
2018-08-22T12:54:03.312Z,7.12
2018-08-22T12:56:31.837Z,5.25
2018-08-22T12:59:00.328Z,5.90
2018-08-22T13:01:28.884Z,6.08
2018-08-22T13:03:57.950Z,5.33
2018-08-22T13:06:26.455Z,5.58
2018-08-22T13:08:54.957Z,8.05
2018-08-22T13:11:23.451Z,6.45
2018-08-22T13:13:52.102Z,5.92
2018-08-22T13:16:20.640Z,5.55
2018-08-22T13:18:49.137Z,5.95
2018-08-22T13:21:17.683Z,5.50
2018-08-22T13:23:46.438Z,7.92
2018-08-22T13:26:14.913Z,5.12
2018-08-22T13:28:43.515Z,5.37
2018-08-22T13:31:12.079Z,8.20
2018-08-22T13:33:40.592Z,5.40
2018-08-22T13:36:09.143Z,5.40
2018-08-22T13:38:37.553Z,5.55
2018-08-22T13:41:06.017Z,5.12
2018-08-22T13:43:34.649Z,5.03
2018-08-22T13:46:03.175Z,11.48
2018-08-22T13:48:31.653Z,7.03
2018-08-22T13:51:00.121Z,5.53
2018-08-22T13:53:28.771Z,5.45
2018-08-22T13:55:57.288Z,5.80
2018-08-22T13:58:25.753Z,6.55
2018-08-22T14:00:54.231Z,6.72
2018-08-22T14:03:22.820Z,9.25
2018-08-22T14:05:51.273Z,10.10
2018-08-22T14:08:19.863Z,12.80
2018-08-22T14:10:48.351Z,16.10
2018-08-22T14:13:16.877Z,13.60
2018-08-22T14:15:45.381Z,13.40
2018-08-22T14:18:13.847Z,10.50
2018-08-22T14:20:42.312Z,10.85
2018-08-22T14:23:10.824Z,12.85
2018-08-22T14:25:41.349Z,13.35
2018-08-22T14:28:09.928Z,13.28
2018-08-22T14:30:38.447Z,14.75
2018-08-22T14:33:06.969Z,20.97
2018-08-22T14:35:35.536Z,23.12
2018-08-22T14:38:04.018Z,27.27
2018-08-22T14:40:32.530Z,21.95
2018-08-22T14:43:01.179Z,10.18
2018-08-22T14:45:29.664Z,12.15
2018-08-22T14:47:58.167Z,16.00
2018-08-22T14:50:26.652Z,20.05
2018-08-22T14:52:55.251Z,24.00
2018-08-22T14:55:23.744Z,26.73
2018-08-22T14:57:52.275Z,29.42
2018-08-22T15:00:20.770Z,30.23
2018-08-22T15:02:49.463Z,29.37
2018-08-22T15:05:17.934Z,14.35
2018-08-22T15:07:46.442Z,14.45
2018-08-22T15:10:16.709Z,15.98
2018-08-22T15:12:45.564Z,16.87
2018-08-22T15:15:13.993Z,16.17
2018-08-22T15:17:42.654Z,15.70
2018-08-22T15:20:11.159Z,16.27
2018-08-22T15:22:39.738Z,15.88
2018-08-22T15:25:08.828Z,13.70
2018-08-22T15:27:37.335Z,14.35
2018-08-22T15:30:06.908Z,13.28
2018-08-22T15:32:35.414Z,12.60
2018-08-22T15:35:03.921Z,11.65
2018-08-22T15:37:32.410Z,9.88
2018-08-22T15:40:00.880Z,8.98
2018-08-22T15:42:29.333Z,7.05
2018-08-22T15:44:57.816Z,6.75
2018-08-22T15:47:26.377Z,5.97
2018-08-22T15:49:54.825Z,6.05
2018-08-22T15:52:23.337Z,5.33
2018-08-22T15:55:06.778Z,5.72
2018-08-22T15:57:48.233Z,5.40
2018-08-22T16:00:54.251Z,5.78
2018-08-22T16:03:23.901Z,5.60
2018-08-22T16:05:53.005Z,5.55
2018-08-22T16:08:23.940Z,5.08
2018-08-22T16:10:52.381Z,4.60
2018-08-22T16:13:26.207Z,4.15
2018-08-22T16:15:55.974Z,3.70
2018-08-22T16:18:24.476Z,4.28
2018-08-22T16:20:56.814Z,5.35
2018-08-22T16:23:27.630Z,7.83
2018-08-22T16:25:57.260Z,9.20
2018-08-22T16:28:26.387Z,9.58
2018-08-22T16:30:57.173Z,9.90
2018-08-22T16:33:25.162Z,9.28
2018-08-22T16:35:53.645Z,9.78
2018-08-22T16:38:22.165Z,8.95
2018-08-22T16:40:52.216Z,9.40
2018-08-22T16:43:37.015Z,9.25
2018-08-22T16:46:07.617Z,8.93
2018-08-22T16:48:36.482Z,8.03
2018-08-22T16:51:05.030Z,8.53
2018-08-22T16:53:34.178Z,11.00
2018-08-22T16:56:02.772Z,8.73
2018-08-22T16:58:31.328Z,7.78
2018-08-22T17:00:59.779Z,9.63
2018-08-22T17:03:28.378Z,8.35
2018-08-22T17:06:02.675Z,7.65
2018-08-22T17:08:31.183Z,7.62
2018-08-22T17:11:01.008Z,10.95
2018-08-22T17:13:40.667Z,8.75
2018-08-22T17:16:09.167Z,9.70
2018-08-22T17:18:37.670Z,8.00
2018-08-22T17:21:06.174Z,9.50
2018-08-22T17:23:34.747Z,11.45
2018-08-22T17:26:03.293Z,9.10
2018-08-22T17:28:38.436Z,8.90
2018-08-22T17:31:09.958Z,10.68
2018-08-22T17:33:42.765Z,10.15
2018-08-22T17:36:12.348Z,11.65
2018-08-22T17:38:43.884Z,12.03
2018-08-22T17:41:12.680Z,12.93
2018-08-22T17:44:06.180Z,13.00
2018-08-22T17:46:36.068Z,11.83
2018-08-22T17:49:04.524Z,15.85
2018-08-22T17:51:41.194Z,12.93
2018-08-22T17:54:09.712Z,10.78
2018-08-22T17:56:38.218Z,12.15
2018-08-22T17:59:06.721Z,11.38
2018-08-22T18:01:35.245Z,12.98
2018-08-22T18:04:03.874Z,12.37
2018-08-22T18:06:32.509Z,11.35
2018-08-22T18:09:02.757Z,13.08
2018-08-22T18:11:31.288Z,12.25
2018-08-22T18:13:59.897Z,14.43
2018-08-22T18:16:28.388Z,13.13
2018-08-22T18:18:56.864Z,12.85
2018-08-22T18:21:32.906Z,12.82
2018-08-22T18:24:01.836Z,12.93
2018-08-22T18:26:30.350Z,13.20
2018-08-22T18:28:58.884Z,12.18
2018-08-22T18:31:27.410Z,10.28
2018-08-22T18:33:58.402Z,11.05
2018-08-22T18:36:28.210Z,13.00
2018-08-22T18:39:16.672Z,13.08
2018-08-22T18:41:45.198Z,13.88
2018-08-22T18:44:15.912Z,14.15
2018-08-22T18:46:44.395Z,13.48
2018-08-22T18:49:12.929Z,13.58
2018-08-22T18:51:41.425Z,19.20
2018-08-22T18:54:09.999Z,14.55
2018-08-22T18:56:38.500Z,14.10
2018-08-22T18:59:18.207Z,13.35
2018-08-22T19:01:46.712Z,13.32
2018-08-22T19:04:16.198Z,15.03
2018-08-22T19:06:44.673Z,15.38
2018-08-22T19:09:13.152Z,15.55
2018-08-22T19:11:41.679Z,14.95
2018-08-22T19:14:10.224Z,17.23
2018-08-22T19:16:38.748Z,14.73
2018-08-22T19:19:07.274Z,15.88
2018-08-22T19:21:35.786Z,15.23
2018-08-22T19:24:04.980Z,14.75
2018-08-22T19:26:33.594Z,14.80
2018-08-22T19:29:03.810Z,15.28
2018-08-22T19:31:32.275Z,15.55
2018-08-22T19:34:00.905Z,15.75
2018-08-22T19:36:29.443Z,16.00
2018-08-22T19:38:57.943Z,14.85
2018-08-22T19:41:30.091Z,15.55
2018-08-22T19:43:58.653Z,15.00
2018-08-22T19:46:27.215Z,14.93
2018-08-22T19:48:55.770Z,14.95
2018-08-22T19:51:24.206Z,16.25
2018-08-22T19:54:01.380Z,16.85
2018-08-22T19:56:30.468Z,16.95
2018-08-22T19:58:59.071Z,18.02
2018-08-22T20:01:30.602Z,18.45
2018-08-22T20:03:59.287Z,18.12
2018-08-22T20:06:28.296Z,18.12
2018-08-22T20:08:57.889Z,16.37
2018-08-22T20:11:26.790Z,18.67
2018-08-22T20:13:59.252Z,18.75
2018-08-22T20:16:27.844Z,17.60
2018-08-22T20:18:58.618Z,16.30
2018-08-22T20:21:31.082Z,19.45
2018-08-22T20:24:00.206Z,18.57
2018-08-22T20:26:29.358Z,23.10
2018-08-22T20:28:59.605Z,22.45
2018-08-22T20:31:28.097Z,21.25
2018-08-22T20:34:05.734Z,23.73
2018-08-22T20:36:34.296Z,23.57
2018-08-22T20:39:06.603Z,26.15
2018-08-22T20:41:35.367Z,25.02
2018-08-22T20:44:16.551Z,25.68
2018-08-22T20:46:46.227Z,23.85
2018-08-22T20:49:15.938Z,28.90
2018-08-22T20:51:44.438Z,27.45
2018-08-22T20:54:14.129Z,27.98
2018-08-22T20:56:48.571Z,26.15
2018-08-22T20:59:18.281Z,26.40
2018-08-22T21:01:49.806Z,31.27
2018-08-22T21:04:18.416Z,29.85
2018-08-22T21:06:46.915Z,31.42
2018-08-22T21:09:15.411Z,31.70
2018-08-22T21:11:44.337Z,32.08
2018-08-22T21:14:13.165Z,33.30
2018-08-22T21:16:41.677Z,30.88
2018-08-22T21:19:10.175Z,33.10
2018-08-22T21:21:38.920Z,35.60
2018-08-22T21:24:07.491Z,35.25
2018-08-22T21:26:43.759Z,37.03
2018-08-22T21:29:12.457Z,37.73
2018-08-22T21:31:40.978Z,36.38
2018-08-22T21:34:14.981Z,38.85
2018-08-22T21:36:45.055Z,38.73
2018-08-22T21:39:18.994Z,40.80
2018-08-22T21:41:47.987Z,38.23
2018-08-22T21:44:21.230Z,41.88
2018-08-22T21:46:56.038Z,39.73
2018-08-22T21:49:24.929Z,41.25
2018-08-22T21:51:54.437Z,43.70
2018-08-22T21:54:22.952Z,44.60
2018-08-22T21:56:51.461Z,43.45
2018-08-22T21:59:19.996Z,46.92
2018-08-22T22:01:53.670Z,45.45
2018-08-22T22:04:31.474Z,45.60
2018-08-22T22:07:00.042Z,48.92
2018-08-22T22:09:28.567Z,49.53
2018-08-22T22:11:58.732Z,47.40
2018-08-22T22:14:31.012Z,48.08
2018-08-22T22:17:00.577Z,48.68
2018-08-22T22:19:30.875Z,49.25
2018-08-22T22:21:59.807Z,49.73
2018-08-22T22:24:28.399Z,50.23
2018-08-22T22:26:57.125Z,49.93
2018-08-22T22:29:32.713Z,51.25
2018-08-22T22:32:04.230Z,49.85
2018-08-22T22:34:35.631Z,53.35
2018-08-22T22:37:04.103Z,51.68
2018-08-22T22:39:41.292Z,51.37
2018-08-22T22:42:15.559Z,51.40
2018-08-22T22:44:48.040Z,52.48
2018-08-22T22:47:21.748Z,53.80
2018-08-22T22:49:51.056Z,54.38
2018-08-22T22:52:43.184Z,56.75
2018-08-22T22:55:12.142Z,54.55
